Nanticoke — WDC4353 — position and weather

sailwx.info

Track history (hours):
 
Tides and Currents Weather Stations Pressure Air Temp Water Temp Dewpoint Dewpoint Depression Visibility Wind Speed Wind Dir Waves Ship Positions

Nanticoke

Owner: Vane Line Bunkering, Baltimore, MD. More information available from US FCC via Universal Licensing System and Coast Guard Vessel Documentation Center.

Last reported at 2016-May-31 23:33 UTC. Time now 2016-May-31 23:48 UTC.
Position N 39°09' W 075°15'.

Length 34 m; draft 4.7 m.

Type: Towing. MMSI: 367023480.

Date/timePositionNaut miles runAvg speedWind from/ knotsBaromVisibWave heightAir tempDewpointWater temp
2016-May-31 23:33N 39°09' W 075°15'8 8.4
2016-May-31 22:33N 39°02' W 075°10'6 5.5
2016-May-31 21:33N 38°57' W 075°07'46 5.6
2016-May-31 13:20N 39°21' W 074°16'5 6.9
2016-May-31 12:33N 39°26' W 074°12'7 6.9
2016-May-31 11:32N 39°32' W 074°08'7 6.9
2016-May-31 10:32N 39°38' W 074°03'7 6.9
2016-May-31 09:33N 39°44' W 073°59'7 6.8
2016-May-31 08:33N 39°51' W 073°58'7 7.0
2016-May-31 07:33N 39°58' W 073°57'23 7.0
2016-May-31 04:20N 40°20' W 073°55'6 7.4
2016-May-31 03:32N 40°26' W 073°54'7 6.7
2016-May-31 02:33N 40°31' W 073°60'7 7.6
2016-May-31 01:33N 40°38' W 074°04'1 1.3
2016-May-31 00:34N 40°39' W 074°02'2 1.8
2016-May-30 23:33N 40°40' W 074°00'0 0.0
2016-May-30 22:33N 40°40' W 074°00'0 0.0
2016-May-30 21:33N 40°40' W 074°00'0 0.0
2016-May-30 20:33N 40°40' W 074°00'0 0.0
2016-May-30 19:33N 40°40' W 074°00'0 0.0
2016-May-30 18:33N 40°40' W 074°00'0 0.0
2016-May-30 17:33N 40°40' W 074°00'0 0.0
2016-May-30 16:33N 40°40' W 074°00'0 0.0
2016-May-30 15:33N 40°40' W 074°00'0 0.0
2016-May-30 14:33N 40°40' W 074°00'0 0.0
2016-May-30 13:33N 40°40' W 074°00'0 0.0
2016-May-30 12:33N 40°40' W 074°00'0 0.0
2016-May-30 11:33N 40°40' W 074°00'0 0.0
2016-May-30 10:33N 40°40' W 074°00'0 0.0
2016-May-30 09:33N 40°40' W 074°00'0 0.0
2016-May-30 08:33N 40°40' W 074°00'0 0.0
2016-May-30 07:33N 40°40' W 074°00'0 0.0
2016-May-30 06:33N 40°40' W 074°00'0 0.0
2016-May-30 05:33N 40°40' W 074°00'0 0.0
2016-May-30 04:33N 40°40' W 074°00'0 0.0
2016-May-30 03:33N 40°40' W 074°00'0 0.0
2016-May-30 02:33N 40°40' W 074°00'0 0.0
2016-May-30 01:33N 40°40' W 074°00'0 0.0
2016-May-30 00:33N 40°40' W 074°00'0 0.0
2016-May-29 23:33N 40°40' W 074°00'0 0.0
2016-May-29 22:33N 40°40' W 074°00'0 0.0
2016-May-29 21:33N 40°40' W 074°00'0 0.0
2016-May-29 20:32N 40°40' W 074°00'0 0.0
2016-May-29 19:33N 40°40' W 074°00'4 3.5
2016-May-29 18:33N 40°39' W 074°05'1 1.2
2016-May-29 17:33N 40°39' W 074°07'5 4.9
2016-May-29 16:33N 40°40' W 074°00'0 0.0
2016-May-29 15:33N 40°40' W 074°00'0 0.0
2016-May-29 14:33N 40°40' W 074°00'0 0.0
2016-May-29 13:33N 40°40' W 074°00'0 0.0
2016-May-29 12:33N 40°40' W 074°00'0 0.0
2016-May-29 11:33N 40°40' W 074°00'0 0.0
2016-May-29 10:33N 40°40' W 074°00'0 0.0
2016-May-29 09:33N 40°40' W 074°00'0 0.0
2016-May-29 08:33N 40°40' W 074°00'0 0.0
2016-May-29 07:33N 40°40' W 074°00'0 0.0
2016-May-29 06:33N 40°40' W 074°00'0 0.0
2016-May-29 05:33N 40°40' W 074°00'0 0.0
2016-May-29 04:33N 40°40' W 074°00'0 0.0
2016-May-29 03:33N 40°40' W 074°00'0 0.0
2016-May-29 02:33N 40°40' W 074°00'3 3.1
2016-May-29 01:34N 40°39' W 074°04'2 1.9
2016-May-29 00:33N 40°39' W 074°07'1 1.1
2016-May-28 23:33N 40°39' W 074°05'0 0.1
2016-May-28 22:33N 40°39' W 074°05'3 3.5
2016-May-28 21:33N 40°40' W 074°00'0 0.0
2016-May-28 20:33N 40°40' W 074°00'0 0.0
2016-May-28 19:33N 40°40' W 074°00'0 0.0
2016-May-28 18:33N 40°40' W 074°00'0 0.0
2016-May-28 17:33N 40°40' W 074°00'0 0.0
2016-May-28 16:33N 40°40' W 074°00'0 0.0
2016-May-28 15:33N 40°40' W 074°00'0 0.0
2016-May-28 14:33N 40°40' W 074°00'0 0.0
2016-May-28 13:34N 40°40' W 074°00'0 0.0
2016-May-28 12:33N 40°40' W 074°00'0 0.0
2016-May-28 11:33N 40°40' W 074°00'0 0.0
2016-May-28 10:33N 40°40' W 074°00'0 0.0
2016-May-28 09:33N 40°40' W 074°00'0 0.0
2016-May-28 08:33N 40°40' W 074°00'0 0.0
2016-May-28 07:33N 40°40' W 074°00'0 0.0
2016-May-28 06:33N 40°40' W 074°00'0 0.0
2016-May-28 05:33N 40°40' W 074°00'0 0.0
2016-May-28 04:33N 40°40' W 074°00'0 0.3
2016-May-28 03:33N 40°40' W 074°00'0 0.0
2016-May-28 02:33N 40°40' W 074°00'0 0.0
2016-May-28 01:33N 40°40' W 074°00'0 0.0
2016-May-28 00:33N 40°40' W 074°00'0 0.0
2016-May-27 23:33N 40°40' W 074°00'0 0.0
2016-May-27 22:33N 40°40' W 074°00'0 0.0
2016-May-27 21:33N 40°40' W 074°00'0 0.3
2016-May-27 20:33N 40°40' W 074°00'0 0.0
2016-May-27 19:33N 40°40' W 074°00'0 0.0
2016-May-27 18:33N 40°40' W 074°00'0 0.0
2016-May-27 17:33N 40°40' W 074°00'0 0.0
2016-May-27 16:33N 40°40' W 074°00'0 0.0
2016-May-27 15:33N 40°40' W 074°00'0 0.0
2016-May-27 14:33N 40°40' W 074°00'0 0.0
2016-May-27 13:33N 40°40' W 074°00'0 0.0
2016-May-27 12:33N 40°40' W 074°00'0 0.0
2016-May-27 11:33N 40°40' W 074°00'0 0.0
2016-May-27 10:33N 40°40' W 074°00'0 0.0
2016-May-27 09:33N 40°40' W 074°00'0 0.0
2016-May-27 08:33N 40°40' W 074°00'0 0.0
2016-May-27 07:33N 40°40' W 074°00'0 0.0
2016-May-27 06:33N 40°40' W 074°00'0 0.0
2016-May-27 05:33N 40°40' W 074°00'0 0.0
2016-May-27 04:33N 40°40' W 074°00'0 0.0
2016-May-27 03:33N 40°40' W 074°00'0 0.0
2016-May-27 02:33N 40°40' W 074°00'0 0.0
2016-May-27 01:33N 40°40' W 074°00'0 0.3
2016-May-27 00:33N 40°40' W 074°00'0 0.0
2016-May-26 23:33N 40°40' W 074°00'1 1.4
2016-May-26 22:33N 40°39' W 074°02'3 2.6
2016-May-26 21:33N 40°39' W 074°05'2 2.5
2016-May-26 20:33N 40°40' W 074°02'0 0.0
2016-May-26 19:33N 40°40' W 074°02'0 0.2
2016-May-26 18:33N 40°40' W 074°02'0 0.1
2016-May-26 17:33N 40°40' W 074°02'0 0.0
2016-May-26 16:33N 40°40' W 074°02'0 0.0
2016-May-26 15:33N 40°40' W 074°02'0 0.1
2016-May-26 14:33N 40°40' W 074°02'0 0.1
2016-May-26 13:33N 40°40' W 074°02'0 0.0
2016-May-26 12:33N 40°40' W 074°02'0 0.0
2016-May-26 11:33N 40°40' W 074°02'0 0.1
2016-May-26 10:33N 40°40' W 074°02'0 0.0
2016-May-26 09:33N 40°40' W 074°02'0 0.0
2016-May-26 08:33N 40°40' W 074°02'0 0.0
2016-May-26 07:33N 40°40' W 074°02'3 2.8
2016-May-26 06:33N 40°39' W 074°05'5 5.3
2016-May-26 05:33N 40°38' W 074°12'0 0.1
2016-May-26 04:33N 40°38' W 074°12'0 0.0
2016-May-26 03:32N 40°38' W 074°12'0 0.0
2016-May-26 02:32N 40°38' W 074°12'0 0.0
2016-May-26 01:32N 40°38' W 074°12'0 0.0
2016-May-26 00:29N 40°38' W 074°12'0 0.0
2016-May-25 23:33N 40°38' W 074°12'0 0.0
2016-May-25 22:30N 40°38' W 074°12'0 0.0
2016-May-25 21:32N 40°38' W 074°12'0 0.0
2016-May-25 20:33N 40°38' W 074°12'4 3.6
2016-May-25 19:32N 40°39' W 074°07'6 5.9
2016-May-25 18:33N 40°40' W 074°00'0 0.0
2016-May-25 17:33N 40°40' W 074°00'0 0.0
2016-May-25 16:34N 40°40' W 074°00'0 0.1
2016-May-25 15:33N 40°40' W 074°00'0 0.0
2016-May-25 14:33N 40°40' W 074°00'0 0.0
2016-May-25 13:33N 40°40' W 074°00'4 4.3
2016-May-25 12:34N 40°39' W 074°06'5 5.2
2016-May-25 11:33N 40°38' W 074°12'7 6.5
2016-May-25 10:33N 40°39' W 074°04'1 1.0
2016-May-25 09:33N 40°39' W 074°03'0 0.0
2016-May-25 08:33N 40°39' W 074°03'0 0.0
2016-May-25 07:33N 40°39' W 074°03'0 0.0
2016-May-25 06:33N 40°39' W 074°03'0 0.1
2016-May-25 05:33N 40°39' W 074°02'0 0.1
2016-May-25 04:33N 40°39' W 074°02'0 0.0
2016-May-25 03:33N 40°39' W 074°02'0 0.4
2016-May-25 02:33N 40°39' W 074°03'2 2.1
2016-May-25 01:33N 40°39' W 074°06'1 1.5
2016-May-25 00:33N 40°40' W 074°05'0 0.0
2016-May-24 23:33N 40°40' W 074°05'3 2.9
2016-May-24 22:33N 40°39' W 074°01'1 1.2
2016-May-24 21:34N 40°40' W 074°00'0 0.0
2016-May-24 20:33N 40°40' W 074°00'0 0.0
2016-May-24 19:33N 40°40' W 074°00'0 0.0
2016-May-24 18:33N 40°40' W 074°00'0 0.0
2016-May-24 17:34N 40°40' W 074°00'0 0.1
2016-May-24 16:33N 40°40' W 074°00'0 0.2
2016-May-24 15:33N 40°40' W 074°00'5 5.2
2016-May-24 14:33N 40°39' W 074°07'2 1.8
2016-May-24 13:33N 40°39' W 074°05'4 3.5
2016-May-24 12:33N 40°40' W 074°00'4 3.6
2016-May-24 11:34N 40°40' W 074°05'0 0.2
2016-May-24 10:33N 40°40' W 074°05'0 0.0
2016-May-24 09:33N 40°40' W 074°05'0 0.0
2016-May-24 08:33N 40°40' W 074°05'0 0.0
2016-May-24 07:33N 40°40' W 074°05'0 0.0
2016-May-24 06:33N 40°40' W 074°05'0 0.0
2016-May-24 05:33N 40°40' W 074°05'0 0.0
2016-May-24 04:33N 40°40' W 074°05'0 0.0
2016-May-24 03:33N 40°40' W 074°05'0 0.0
2016-May-24 02:33N 40°40' W 074°05'1 1.1
2016-May-24 01:33N 40°39' W 074°05'2 1.7
2016-May-24 00:33N 40°40' W 074°03'0 0.1
2016-May-23 23:33N 40°40' W 074°03'0 0.1
2016-May-23 22:33N 40°40' W 074°03'0 0.0
2016-May-23 21:33N 40°40' W 074°03'0 0.0
2016-May-23 20:33N 40°40' W 074°03'0 0.0
2016-May-23 19:33N 40°40' W 074°03'0 0.0
2016-May-23 18:33N 40°40' W 074°03'0 0.0
2016-May-23 17:33N 40°40' W 074°03'0 0.2
2016-May-23 16:34N 40°40' W 074°03'0 0.0
2016-May-23 15:33N 40°40' W 074°03'0 0.0
2016-May-23 14:33N 40°40' W 074°03'0 0.0
2016-May-23 13:33N 40°40' W 074°03'0 0.0
2016-May-23 12:33N 40°40' W 074°03'0 0.2
2016-May-23 11:33N 40°40' W 074°03'0 0.0
2016-May-23 10:33N 40°40' W 074°03'0 0.0
2016-May-23 09:33N 40°40' W 074°03'0 0.0
2016-May-23 08:33N 40°40' W 074°03'0 0.0
2016-May-23 07:33N 40°40' W 074°03'0 0.0
2016-May-23 06:33N 40°40' W 074°03'0 0.0
2016-May-23 05:33N 40°40' W 074°03'0 0.2
2016-May-23 04:33N 40°40' W 074°03'0 0.1
2016-May-23 03:33N 40°40' W 074°03'0 0.0
2016-May-23 02:34N 40°40' W 074°03'0 0.0
2016-May-23 01:33N 40°40' W 074°03'0 0.0
2016-May-23 00:33N 40°40' W 074°03'0 0.0
2016-May-22 23:33N 40°40' W 074°03'0 0.2
2016-May-22 22:33N 40°40' W 074°03'4 3.7
2016-May-22 21:33N 40°39' W 074°07'4 3.0
2016-May-22 20:20N 40°38' W 074°12'0 0.0
2016-May-22 19:33N 40°38' W 074°12'0 0.0
2016-May-22 18:33N 40°38' W 074°12'0 0.0
2016-May-22 17:33N 40°38' W 074°12'0 0.0
2016-May-22 16:33N 40°38' W 074°12'0 0.0
2016-May-22 15:33N 40°38' W 074°12'0 0.0
2016-May-22 14:33N 40°38' W 074°12'0 0.0
2016-May-22 13:33N 40°38' W 074°12'0 0.0
2016-May-22 12:33N 40°38' W 074°12'0 0.0
2016-May-22 11:33N 40°38' W 074°12'0 0.0
2016-May-22 08:33N 40°38' W 074°12'0 0.0
2016-May-22 07:33N 40°38' W 074°12'0 0.0
2016-May-22 06:33N 40°38' W 074°12'0 0.0
2016-May-22 05:33N 40°38' W 074°12'0 0.0
2016-May-22 04:33N 40°38' W 074°12'0 0.2
2016-May-22 03:34N 40°38' W 074°12'6 5.9
2016-May-22 02:33N 40°39' W 074°05'2 1.6
2016-May-22 01:33N 40°39' W 074°03'0 0.1
2016-May-22 00:34N 40°39' W 074°02'0 0.0
2016-May-21 23:34N 40°39' W 074°03'  
Track history (hours):
 
Tides and Currents Weather Stations Pressure Air Temp Water Temp Dewpoint Dewpoint Depression Visibility Wind Speed Wind Dir Waves Ship Positions

Nanticoke

Owner: Vane Line Bunkering, Baltimore, MD. More information available from US FCC via Universal Licensing System and Coast Guard Vessel Documentation Center.

Last reported at 2016-May-31 23:33 UTC. Time now 2016-May-31 23:48 UTC.
Position N 39°09' W 075°15'.

Length 34 m; draft 4.7 m.

Type: Towing. MMSI: 367023480.

Date/timePositionNaut miles runAvg speedWind from/ knotsBaromVisibWave heightAir tempDewpointWater temp
2016-May-31 23:33N 39°09' W 075°15'8 8.4
2016-May-31 22:33N 39°02' W 075°10'6 5.5
2016-May-31 21:33N 38°57' W 075°07'46 5.6
2016-May-31 13:20N 39°21' W 074°16'5 6.9
2016-May-31 12:33N 39°26' W 074°12'7 6.9
2016-May-31 11:32N 39°32' W 074°08'7 6.9
2016-May-31 10:32N 39°38' W 074°03'7 6.9
2016-May-31 09:33N 39°44' W 073°59'7 6.8
2016-May-31 08:33N 39°51' W 073°58'7 7.0
2016-May-31 07:33N 39°58' W 073°57'23 7.0
2016-May-31 04:20N 40°20' W 073°55'6 7.4
2016-May-31 03:32N 40°26' W 073°54'7 6.7
2016-May-31 02:33N 40°31' W 073°60'7 7.6
2016-May-31 01:33N 40°38' W 074°04'1 1.3
2016-May-31 00:34N 40°39' W 074°02'2 1.8
2016-May-30 23:33N 40°40' W 074°00'0 0.0
2016-May-30 22:33N 40°40' W 074°00'0 0.0
2016-May-30 21:33N 40°40' W 074°00'0 0.0
2016-May-30 20:33N 40°40' W 074°00'0 0.0
2016-May-30 19:33N 40°40' W 074°00'0 0.0
2016-May-30 18:33N 40°40' W 074°00'0 0.0
2016-May-30 17:33N 40°40' W 074°00'0 0.0
2016-May-30 16:33N 40°40' W 074°00'0 0.0
2016-May-30 15:33N 40°40' W 074°00'0 0.0
2016-May-30 14:33N 40°40' W 074°00'0 0.0
2016-May-30 13:33N 40°40' W 074°00'0 0.0
2016-May-30 12:33N 40°40' W 074°00'0 0.0
2016-May-30 11:33N 40°40' W 074°00'0 0.0
2016-May-30 10:33N 40°40' W 074°00'0 0.0
2016-May-30 09:33N 40°40' W 074°00'0 0.0
2016-May-30 08:33N 40°40' W 074°00'0 0.0
2016-May-30 07:33N 40°40' W 074°00'0 0.0
2016-May-30 06:33N 40°40' W 074°00'0 0.0
2016-May-30 05:33N 40°40' W 074°00'0 0.0
2016-May-30 04:33N 40°40' W 074°00'0 0.0
2016-May-30 03:33N 40°40' W 074°00'0 0.0
2016-May-30 02:33N 40°40' W 074°00'0 0.0
2016-May-30 01:33N 40°40' W 074°00'0 0.0
2016-May-30 00:33N 40°40' W 074°00'0 0.0
2016-May-29 23:33N 40°40' W 074°00'0 0.0
2016-May-29 22:33N 40°40' W 074°00'0 0.0
2016-May-29 21:33N 40°40' W 074°00'0 0.0
2016-May-29 20:32N 40°40' W 074°00'0 0.0
2016-May-29 19:33N 40°40' W 074°00'4 3.5
2016-May-29 18:33N 40°39' W 074°05'1 1.2
2016-May-29 17:33N 40°39' W 074°07'5 4.9
2016-May-29 16:33N 40°40' W 074°00'0 0.0
2016-May-29 15:33N 40°40' W 074°00'0 0.0
2016-May-29 14:33N 40°40' W 074°00'0 0.0
2016-May-29 13:33N 40°40' W 074°00'0 0.0
2016-May-29 12:33N 40°40' W 074°00'0 0.0
2016-May-29 11:33N 40°40' W 074°00'0 0.0
2016-May-29 10:33N 40°40' W 074°00'0 0.0
2016-May-29 09:33N 40°40' W 074°00'0 0.0
2016-May-29 08:33N 40°40' W 074°00'0 0.0
2016-May-29 07:33N 40°40' W 074°00'0 0.0
2016-May-29 06:33N 40°40' W 074°00'0 0.0
2016-May-29 05:33N 40°40' W 074°00'0 0.0
2016-May-29 04:33N 40°40' W 074°00'0 0.0
2016-May-29 03:33N 40°40' W 074°00'0 0.0
2016-May-29 02:33N 40°40' W 074°00'3 3.1
2016-May-29 01:34N 40°39' W 074°04'2 1.9
2016-May-29 00:33N 40°39' W 074°07'1 1.1
2016-May-28 23:33N 40°39' W 074°05'0 0.1
2016-May-28 22:33N 40°39' W 074°05'3 3.5
2016-May-28 21:33N 40°40' W 074°00'0 0.0
2016-May-28 20:33N 40°40' W 074°00'0 0.0
2016-May-28 19:33N 40°40' W 074°00'0 0.0
2016-May-28 18:33N 40°40' W 074°00'0 0.0
2016-May-28 17:33N 40°40' W 074°00'0 0.0
2016-May-28 16:33N 40°40' W 074°00'0 0.0
2016-May-28 15:33N 40°40' W 074°00'0 0.0
2016-May-28 14:33N 40°40' W 074°00'0 0.0
2016-May-28 13:34N 40°40' W 074°00'0 0.0
2016-May-28 12:33N 40°40' W 074°00'0 0.0
2016-May-28 11:33N 40°40' W 074°00'0 0.0
2016-May-28 10:33N 40°40' W 074°00'0 0.0
2016-May-28 09:33N 40°40' W 074°00'0 0.0
2016-May-28 08:33N 40°40' W 074°00'0 0.0
2016-May-28 07:33N 40°40' W 074°00'0 0.0
2016-May-28 06:33N 40°40' W 074°00'0 0.0
2016-May-28 05:33N 40°40' W 074°00'0 0.0
2016-May-28 04:33N 40°40' W 074°00'0 0.3
2016-May-28 03:33N 40°40' W 074°00'0 0.0
2016-May-28 02:33N 40°40' W 074°00'0 0.0
2016-May-28 01:33N 40°40' W 074°00'0 0.0
2016-May-28 00:33N 40°40' W 074°00'0 0.0
2016-May-27 23:33N 40°40' W 074°00'0 0.0
2016-May-27 22:33N 40°40' W 074°00'0 0.0
2016-May-27 21:33N 40°40' W 074°00'0 0.3
2016-May-27 20:33N 40°40' W 074°00'0 0.0
2016-May-27 19:33N 40°40' W 074°00'0 0.0
2016-May-27 18:33N 40°40' W 074°00'0 0.0
2016-May-27 17:33N 40°40' W 074°00'0 0.0
2016-May-27 16:33N 40°40' W 074°00'0 0.0
2016-May-27 15:33N 40°40' W 074°00'0 0.0
2016-May-27 14:33N 40°40' W 074°00'0 0.0
2016-May-27 13:33N 40°40' W 074°00'0 0.0
2016-May-27 12:33N 40°40' W 074°00'0 0.0
2016-May-27 11:33N 40°40' W 074°00'0 0.0
2016-May-27 10:33N 40°40' W 074°00'0 0.0
2016-May-27 09:33N 40°40' W 074°00'0 0.0
2016-May-27 08:33N 40°40' W 074°00'0 0.0
2016-May-27 07:33N 40°40' W 074°00'0 0.0
2016-May-27 06:33N 40°40' W 074°00'0 0.0
2016-May-27 05:33N 40°40' W 074°00'0 0.0
2016-May-27 04:33N 40°40' W 074°00'0 0.0
2016-May-27 03:33N 40°40' W 074°00'0 0.0
2016-May-27 02:33N 40°40' W 074°00'0 0.0
2016-May-27 01:33N 40°40' W 074°00'0 0.3
2016-May-27 00:33N 40°40' W 074°00'0 0.0
2016-May-26 23:33N 40°40' W 074°00'1 1.4
2016-May-26 22:33N 40°39' W 074°02'3 2.6
2016-May-26 21:33N 40°39' W 074°05'2 2.5
2016-May-26 20:33N 40°40' W 074°02'0 0.0
2016-May-26 19:33N 40°40' W 074°02'0 0.2
2016-May-26 18:33N 40°40' W 074°02'0 0.1
2016-May-26 17:33N 40°40' W 074°02'0 0.0
2016-May-26 16:33N 40°40' W 074°02'0 0.0
2016-May-26 15:33N 40°40' W 074°02'0 0.1
2016-May-26 14:33N 40°40' W 074°02'0 0.1
2016-May-26 13:33N 40°40' W 074°02'0 0.0
2016-May-26 12:33N 40°40' W 074°02'0 0.0
2016-May-26 11:33N 40°40' W 074°02'0 0.1
2016-May-26 10:33N 40°40' W 074°02'0 0.0
2016-May-26 09:33N 40°40' W 074°02'0 0.0
2016-May-26 08:33N 40°40' W 074°02'0 0.0
2016-May-26 07:33N 40°40' W 074°02'3 2.8
2016-May-26 06:33N 40°39' W 074°05'5 5.3
2016-May-26 05:33N 40°38' W 074°12'0 0.1
2016-May-26 04:33N 40°38' W 074°12'0 0.0
2016-May-26 03:32N 40°38' W 074°12'0 0.0
2016-May-26 02:32N 40°38' W 074°12'0 0.0
2016-May-26 01:32N 40°38' W 074°12'0 0.0
2016-May-26 00:29N 40°38' W 074°12'0 0.0
2016-May-25 23:33N 40°38' W 074°12'0 0.0
2016-May-25 22:30N 40°38' W 074°12'0 0.0
2016-May-25 21:32N 40°38' W 074°12'0 0.0
2016-May-25 20:33N 40°38' W 074°12'4 3.6
2016-May-25 19:32N 40°39' W 074°07'6 5.9
2016-May-25 18:33N 40°40' W 074°00'0 0.0
2016-May-25 17:33N 40°40' W 074°00'0 0.0
2016-May-25 16:34N 40°40' W 074°00'0 0.1
2016-May-25 15:33N 40°40' W 074°00'0 0.0
2016-May-25 14:33N 40°40' W 074°00'0 0.0
2016-May-25 13:33N 40°40' W 074°00'4 4.3
2016-May-25 12:34N 40°39' W 074°06'5 5.2
2016-May-25 11:33N 40°38' W 074°12'7 6.5
2016-May-25 10:33N 40°39' W 074°04'1 1.0
2016-May-25 09:33N 40°39' W 074°03'0 0.0
2016-May-25 08:33N 40°39' W 074°03'0 0.0
2016-May-25 07:33N 40°39' W 074°03'0 0.0
2016-May-25 06:33N 40°39' W 074°03'0 0.1
2016-May-25 05:33N 40°39' W 074°02'0 0.1
2016-May-25 04:33N 40°39' W 074°02'0 0.0
2016-May-25 03:33N 40°39' W 074°02'0 0.4
2016-May-25 02:33N 40°39' W 074°03'2 2.1
2016-May-25 01:33N 40°39' W 074°06'1 1.5
2016-May-25 00:33N 40°40' W 074°05'0 0.0
2016-May-24 23:33N 40°40' W 074°05'3 2.9
2016-May-24 22:33N 40°39' W 074°01'1 1.2
2016-May-24 21:34N 40°40' W 074°00'0 0.0
2016-May-24 20:33N 40°40' W 074°00'0 0.0
2016-May-24 19:33N 40°40' W 074°00'0 0.0
2016-May-24 18:33N 40°40' W 074°00'0 0.0
2016-May-24 17:34N 40°40' W 074°00'0 0.1
2016-May-24 16:33N 40°40' W 074°00'0 0.2
2016-May-24 15:33N 40°40' W 074°00'5 5.2
2016-May-24 14:33N 40°39' W 074°07'2 1.8
2016-May-24 13:33N 40°39' W 074°05'4 3.5
2016-May-24 12:33N 40°40' W 074°00'4 3.6
2016-May-24 11:34N 40°40' W 074°05'0 0.2
2016-May-24 10:33N 40°40' W 074°05'0 0.0
2016-May-24 09:33N 40°40' W 074°05'0 0.0
2016-May-24 08:33N 40°40' W 074°05'0 0.0
2016-May-24 07:33N 40°40' W 074°05'0 0.0
2016-May-24 06:33N 40°40' W 074°05'0 0.0
2016-May-24 05:33N 40°40' W 074°05'0 0.0
2016-May-24 04:33N 40°40' W 074°05'0 0.0
2016-May-24 03:33N 40°40' W 074°05'0 0.0
2016-May-24 02:33N 40°40' W 074°05'1 1.1
2016-May-24 01:33N 40°39' W 074°05'2 1.7
2016-May-24 00:33N 40°40' W 074°03'0 0.1
2016-May-23 23:33N 40°40' W 074°03'0 0.1
2016-May-23 22:33N 40°40' W 074°03'0 0.0
2016-May-23 21:33N 40°40' W 074°03'0 0.0
2016-May-23 20:33N 40°40' W 074°03'0 0.0
2016-May-23 19:33N 40°40' W 074°03'0 0.0
2016-May-23 18:33N 40°40' W 074°03'0 0.0
2016-May-23 17:33N 40°40' W 074°03'0 0.2
2016-May-23 16:34N 40°40' W 074°03'0 0.0
2016-May-23 15:33N 40°40' W 074°03'0 0.0
2016-May-23 14:33N 40°40' W 074°03'0 0.0
2016-May-23 13:33N 40°40' W 074°03'0 0.0
2016-May-23 12:33N 40°40' W 074°03'0 0.2
2016-May-23 11:33N 40°40' W 074°03'0 0.0
2016-May-23 10:33N 40°40' W 074°03'0 0.0
2016-May-23 09:33N 40°40' W 074°03'0 0.0
2016-May-23 08:33N 40°40' W 074°03'0 0.0
2016-May-23 07:33N 40°40' W 074°03'0 0.0
2016-May-23 06:33N 40°40' W 074°03'0 0.0
2016-May-23 05:33N 40°40' W 074°03'0 0.2
2016-May-23 04:33N 40°40' W 074°03'0 0.1
2016-May-23 03:33N 40°40' W 074°03'0 0.0
2016-May-23 02:34N 40°40' W 074°03'0 0.0
2016-May-23 01:33N 40°40' W 074°03'0 0.0
2016-May-23 00:33N 40°40' W 074°03'0 0.0
2016-May-22 23:33N 40°40' W 074°03'0 0.2
2016-May-22 22:33N 40°40' W 074°03'4 3.7
2016-May-22 21:33N 40°39' W 074°07'4 3.0
2016-May-22 20:20N 40°38' W 074°12'0 0.0
2016-May-22 19:33N 40°38' W 074°12'0 0.0
2016-May-22 18:33N 40°38' W 074°12'0 0.0
2016-May-22 17:33N 40°38' W 074°12'0 0.0
2016-May-22 16:33N 40°38' W 074°12'0 0.0
2016-May-22 15:33N 40°38' W 074°12'0 0.0
2016-May-22 14:33N 40°38' W 074°12'0 0.0
2016-May-22 13:33N 40°38' W 074°12'0 0.0
2016-May-22 12:33N 40°38' W 074°12'0 0.0
2016-May-22 11:33N 40°38' W 074°12'0 0.0
2016-May-22 08:33N 40°38' W 074°12'0 0.0
2016-May-22 07:33N 40°38' W 074°12'0 0.0
2016-May-22 06:33N 40°38' W 074°12'0 0.0
2016-May-22 05:33N 40°38' W 074°12'0 0.0
2016-May-22 04:33N 40°38' W 074°12'0 0.2
2016-May-22 03:34N 40°38' W 074°12'6 5.9
2016-May-22 02:33N 40°39' W 074°05'2 1.6
2016-May-22 01:33N 40°39' W 074°03'0 0.1
2016-May-22 00:34N 40°39' W 074°02'0 0.0
2016-May-21 23:34N 40°39' W 074°03'  

Dump ship's entire track history